Time,TemperatureF,DewpointF,PressureIn,WindDirection,WindDirectionDegrees,WindSpeedMPH,WindSpeedGustMPH,Humidity,HourlyPrecipIn,Conditions,Clouds,dailyrainin,SoftwareType,DateUTC
2013-01-05 00:00:00,28.8,24.0,30.36,WSW,238,3.0,8.0,82,0.00,,---,0.00,VWS V14.01,2013-01-05 05:00:00,
2013-01-05 00:01:00,28.8,24.0,30.36,WNW,290,3.0,8.0,82,0.00,,---,0.00,VWS V14.01,2013-01-05 05:01:00,
2013-01-05 00:06:00,28.8,23.7,30.36,WNW,290,3.0,8.0,81,0.00,,---,0.00,VWS V14.01,2013-01-05 05:06:00,
2013-01-05 00:11:00,28.7,23.6,30.36,West,278,2.0,8.0,81,0.00,,---,0.00,VWS V14.01,2013-01-05 05:11:00,
2013-01-05 00:16:00,28.6,23.8,30.35,West,268,1.0,8.0,82,0.00,,---,0.00,VWS V14.01,2013-01-05 05:16:00,
2013-01-05 00:21:00,28.6,23.8,30.35,WSW,257,1.0,8.0,82,0.00,,---,0.00,VWS V14.01,2013-01-05 05:21:00,
2013-01-05 00:26:00,28.4,23.6,30.35,West,280,1.0,8.0,82,0.00,,---,0.00,VWS V14.01,2013-01-05 05:26:00,
2013-01-05 00:30:00,28.3,23.8,30.35,WSW,257,1.0,8.0,83,0.00,,---,0.00,VWS V14.01,2013-01-05 05:30:00,
2013-01-05 00:31:00,28.3,23.8,30.35,WSW,257,1.0,8.0,83,0.00,,---,0.00,VWS V14.01,2013-01-05 05:31:00,
2013-01-05 00:36:00,28.2,23.7,30.35,West,267,0.0,3.0,83,0.00,,---,0.00,VWS V14.01,2013-01-05 05:36:00,
2013-01-05 00:41:00,28.1,23.6,30.35,West,270,1.0,3.0,83,0.00,,---,0.00,VWS V14.01,2013-01-05 05:41:00,
2013-01-05 00:46:00,28.0,23.5,30.35,West,277,1.0,3.0,83,0.00,,---,0.00,VWS V14.01,2013-01-05 05:46:00,
2013-01-05 00:51:00,27.8,23.3,30.35,West,259,0.0,3.0,83,0.00,,---,0.00,VWS V14.01,2013-01-05 05:51:00,
2013-01-05 00:56:00,27.6,23.1,30.34,WSW,258,0.0,3.0,83,0.00,,---,0.00,VWS V14.01,2013-01-05 05:56:00,
2013-01-05 01:00:00,27.4,23.2,30.34,West,259,0.0,3.0,84,0.00,,---,0.00,VWS V14.01,2013-01-05 06:00:00,
2013-01-05 01:01:00,27.4,23.2,30.34,West,259,0.0,0.0,84,0.00,,---,0.00,VWS V14.01,2013-01-05 06:01:00,
2013-01-05 01:06:00,27.2,23.0,30.34,West,259,0.0,0.0,84,0.00,,---,0.00,VWS V14.01,2013-01-05 06:06:00,
2013-01-05 01:11:00,27.0,22.8,30.33,West,259,0.0,0.0,84,0.00,,---,0.00,VWS V14.01,2013-01-05 06:11:00,
2013-01-05 01:16:00,26.7,22.8,30.34,West,259,0.0,0.0,85,0.00,,---,0.00,VWS V14.01,2013-01-05 06:16:00,
2013-01-05 01:21:00,26.3,22.4,30.34,West,259,0.0,0.0,85,0.00,,---,0.00,VWS V14.01,2013-01-05 06:21:00,
2013-01-05 01:26:00,26.1,22.5,30.34,West,259,0.0,0.0,86,0.00,,---,0.00,VWS V14.01,2013-01-05 06:26:00,
2013-01-05 01:30:00,26.0,22.4,30.33,West,259,0.0,0.0,86,0.00,,---,0.00,VWS V14.01,2013-01-05 06:30:00,
2013-01-05 01:31:00,26.0,22.7,30.33,WSW,258,0.0,0.0,87,0.00,,---,0.00,VWS V14.01,2013-01-05 06:31:00,
2013-01-05 01:36:00,26.0,22.7,30.33,West,259,0.0,0.0,87,0.00,,---,0.00,VWS V14.01,2013-01-05 06:36:00,
2013-01-05 01:41:00,26.0,22.7,30.33,West,259,0.0,0.0,87,0.00,,---,0.00,VWS V14.01,2013-01-05 06:41:00,
2013-01-05 01:46:00,25.8,22.5,30.34,West,259,0.0,0.0,87,0.00,,---,0.00,VWS V14.01,2013-01-05 06:46:00,
2013-01-05 01:51:00,25.6,22.3,30.34,West,259,0.0,0.0,87,0.00,,---,0.00,VWS V14.01,2013-01-05 06:51:00,
2013-01-05 01:56:00,25.7,22.6,30.34,West,271,0.0,0.0,88,0.00,,---,0.00,VWS V14.01,2013-01-05 06:56:00,
2013-01-05 02:00:00,25.9,22.6,30.34,West,274,0.0,0.0,87,0.00,,---,0.00,VWS V14.01,2013-01-05 07:00:00,
2013-01-05 02:01:00,25.9,22.6,30.34,West,274,0.0,0.0,87,0.00,,---,0.00,VWS V14.01,2013-01-05 07:01:00,
2013-01-05 02:06:00,26.1,22.8,30.34,West,274,0.0,0.0,87,0.00,,---,0.00,VWS V14.01,2013-01-05 07:06:00,
2013-01-05 02:11:00,26.3,23.0,30.35,West,274,0.0,0.0,87,0.00,,---,0.00,VWS V14.01,2013-01-05 07:11:00,
2013-01-05 02:16:00,26.4,23.1,30.35,West,274,0.0,0.0,87,0.00,,---,0.00,VWS V14.01,2013-01-05 07:16:00,
2013-01-05 02:21:00,26.4,22.8,30.35,West,274,0.0,0.0,86,0.00,,---,0.00,VWS V14.01,2013-01-05 07:21:00,
2013-01-05 02:26:00,26.4,23.1,30.36,West,281,0.0,0.0,87,0.00,,---,0.00,VWS V14.01,2013-01-05 07:26:00,
2013-01-05 02:30:00,26.6,23.3,30.36,West,270,3.0,4.0,87,0.00,,---,0.00,VWS V14.01,2013-01-05 07:30:00,
2013-01-05 02:31:00,26.6,23.3,30.36,WSW,253,3.0,3.0,87,0.00,,---,0.00,VWS V14.01,2013-01-05 07:31:00,
2013-01-05 02:36:00,27.0,23.4,30.36,WSW,250,3.0,4.0,86,0.00,,---,0.00,VWS V14.01,2013-01-05 07:36:00,
2013-01-05 02:41:00,27.3,23.4,30.36,WNW,294,2.0,6.0,85,0.00,,---,0.00,VWS V14.01,2013-01-05 07:41:00,
2013-01-05 02:46:00,27.4,23.5,30.36,West,277,2.0,6.0,85,0.00,,---,0.00,VWS V14.01,2013-01-05 07:46:00,
2013-01-05 02:51:00,27.5,23.6,30.36,WNW,284,1.0,6.0,85,0.00,,---,0.00,VWS V14.01,2013-01-05 07:51:00,
2013-01-05 02:56:00,27.5,23.6,30.36,WSW,250,1.0,6.0,85,0.00,,---,0.00,VWS V14.01,2013-01-05 07:56:00,
2013-01-05 03:00:00,27.4,23.2,30.36,West,270,2.0,6.0,84,0.00,,---,0.00,VWS V14.01,2013-01-05 08:00:00,
2013-01-05 03:01:00,27.4,23.2,30.36,West,275,1.0,2.0,84,0.00,,---,0.00,VWS V14.01,2013-01-05 08:01:00,
2013-01-05 03:06:00,27.2,23.3,30.36,WSW,243,1.0,2.0,85,0.00,,---,0.00,VWS V14.01,2013-01-05 08:06:00,
2013-01-05 03:11:00,27.0,23.1,30.36,SW,222,2.0,2.0,85,0.00,,---,0.00,VWS V14.01,2013-01-05 08:11:00,
2013-01-05 03:16:00,27.0,23.4,30.36,SW,218,1.0,3.0,86,0.00,,---,0.00,VWS V14.01,2013-01-05 08:16:00,
2013-01-05 03:21:00,27.1,23.5,30.36,WNW,283,2.0,4.0,86,0.00,,---,0.00,VWS V14.01,2013-01-05 08:21:00,
2013-01-05 03:26:00,27.3,23.4,30.36,West,274,1.0,4.0,85,0.00,,---,0.00,VWS V14.01,2013-01-05 08:26:00,
2013-01-05 03:30:00,27.3,23.4,30.36,WSW,243,1.0,4.0,85,0.00,,---,0.00,VWS V14.01,2013-01-05 08:30:00,
2013-01-05 03:31:00,27.3,23.4,30.36,WSW,242,1.0,1.0,85,0.00,,---,0.00,VWS V14.01,2013-01-05 08:31:00,
2013-01-05 03:36:00,27.5,23.6,30.36,SW,236,2.0,3.0,85,0.00,,---,0.00,VWS V14.01,2013-01-05 08:36:00,
2013-01-05 03:41:00,27.5,23.6,30.36,West,267,1.0,3.0,85,0.00,,---,0.00,VWS V14.01,2013-01-05 08:41:00,
2013-01-05 03:46:00,27.5,23.6,30.36,WSW,253,2.0,5.0,85,0.00,,---,0.00,VWS V14.01,2013-01-05 08:46:00,
2013-01-05 03:51:00,27.5,23.6,30.36,West,273,1.0,5.0,85,0.00,,---,0.00,VWS V14.01,2013-01-05 08:51:00,
2013-01-05 03:56:00,27.5,23.6,30.36,WSW,242,1.0,5.0,85,0.00,,---,0.00,VWS V14.01,2013-01-05 08:56:00,
2013-01-05 04:00:00,27.4,23.5,30.36,WSW,242,0.0,5.0,85,0.00,,---,0.00,VWS V14.01,2013-01-05 09:00:00,
2013-01-05 04:01:00,27.4,23.5,30.36,WSW,241,0.0,0.0,85,0.00,,---,0.00,VWS V14.01,2013-01-05 09:01:00,
2013-01-05 04:06:00,27.3,23.4,30.36,SW,224,1.0,2.0,85,0.00,,---,0.00,VWS V14.01,2013-01-05 09:06:00,
2013-01-05 04:11:00,27.0,23.4,30.36,South,187,0.0,2.0,86,0.00,,---,0.00,VWS V14.01,2013-01-05 09:11:00,
2013-01-05 04:16:00,26.8,23.2,30.36,SSE,148,1.0,3.0,86,0.00,,---,0.00,VWS V14.01,2013-01-05 09:16:00,
2013-01-05 04:21:00,26.7,23.1,30.35,WSW,245,1.0,3.0,86,0.00,,---,0.00,VWS V14.01,2013-01-05 09:21:00,
2013-01-05 04:26:00,26.6,23.0,30.35,WNW,283,1.0,3.0,86,0.00,,---,0.00,VWS V14.01,2013-01-05 09:26:00,
2013-01-05 04:30:00,26.3,22.7,30.35,SE,124,0.0,3.0,86,0.00,,---,0.00,VWS V14.01,2013-01-05 09:30:00,
2013-01-05 04:31:00,26.3,22.7,30.35,SE,124,0.0,0.0,86,0.00,,---,0.00,VWS V14.01,2013-01-05 09:31:00,
2013-01-05 04:36:00,26.1,22.8,30.35,SE,124,0.0,0.0,87,0.00,,---,0.00,VWS V14.01,2013-01-05 09:36:00,
2013-01-05 04:41:00,25.9,22.8,30.35,ESE,120,0.0,0.0,88,0.00,,---,0.00,VWS V14.01,2013-01-05 09:41:00,
2013-01-05 04:46:00,25.8,22.7,30.35,SE,129,0.0,0.0,88,0.00,,---,0.00,VWS V14.01,2013-01-05 09:46:00,
2013-01-05 04:51:00,25.6,22.5,30.35,SSE,160,0.0,0.0,88,0.00,,---,0.00,VWS V14.01,2013-01-05 09:51:00,
2013-01-05 04:56:00,25.4,22.4,30.35,SSE,161,0.0,0.0,88,0.00,,---,0.00,VWS V14.01,2013-01-05 09:56:00,
2013-01-05 05:00:00,25.2,22.4,30.35,SSW,210,2.0,2.0,89,0.00,,---,0.00,VWS V14.01,2013-01-05 10:00:00,
2013-01-05 05:01:00,25.2,22.4,30.35,SE,146,1.0,1.0,89,0.00,,---,0.00,VWS V14.01,2013-01-05 10:01:00,
2013-01-05 05:06:00,25.2,22.4,30.35,SSE,150,0.0,1.0,89,0.00,,---,0.00,VWS V14.01,2013-01-05 10:06:00,
2013-01-05 05:11:00,25.1,22.6,30.36,SSE,160,0.0,2.0,90,0.00,,---,0.00,VWS V14.01,2013-01-05 10:11:00,
2013-01-05 05:16:00,25.1,22.6,30.36,SSE,166,0.0,2.0,90,0.00,,---,0.00,VWS V14.01,2013-01-05 10:16:00,
2013-01-05 05:21:00,25.1,22.6,30.36,SW,228,1.0,2.0,90,0.00,,---,0.00,VWS V14.01,2013-01-05 10:21:00,
2013-01-05 05:26:00,25.2,22.7,30.36,SW,227,1.0,2.0,90,0.00,,---,0.00,VWS V14.01,2013-01-05 10:26:00,
2013-01-05 05:30:00,25.3,22.8,30.36,SW,214,1.0,2.0,90,0.00,,---,0.00,VWS V14.01,2013-01-05 10:30:00,
2013-01-05 05:31:00,25.3,22.8,30.36,SW,216,2.0,2.0,90,0.00,,---,0.00,VWS V14.01,2013-01-05 10:31:00,
2013-01-05 05:36:00,25.3,22.8,30.36,SSW,207,1.0,2.0,90,0.00,,---,0.00,VWS V14.01,2013-01-05 10:36:00,
2013-01-05 05:41:00,25.5,23.0,30.36,SSW,200,1.0,2.0,90,0.00,,---,0.00,VWS V14.01,2013-01-05 10:41:00,
2013-01-05 05:46:00,25.7,23.2,30.36,SW,233,0.0,2.0,90,0.00,,---,0.00,VWS V14.01,2013-01-05 10:46:00,
2013-01-05 05:51:00,25.9,23.4,30.36,West,270,1.0,2.0,90,0.00,,---,0.00,VWS V14.01,2013-01-05 10:51:00,
2013-01-05 05:56:00,25.9,23.4,30.36,SSW,207,1.0,2.0,90,0.00,,---,0.00,VWS V14.01,2013-01-05 10:56:00,
2013-01-05 06:00:00,26.0,23.5,30.37,SW,220,1.0,2.0,90,0.00,,---,0.00,VWS V14.01,2013-01-05 11:00:00,
2013-01-05 06:01:00,26.0,23.5,30.37,SW,219,1.0,1.0,90,0.00,,---,0.00,VWS V14.01,2013-01-05 11:01:00,
2013-01-05 06:06:00,26.0,23.5,30.37,WSW,239,3.0,4.0,90,0.00,,---,0.00,VWS V14.01,2013-01-05 11:06:00,
2013-01-05 06:11:00,26.0,23.5,30.37,SSW,212,1.0,4.0,90,0.00,,---,0.00,VWS V14.01,2013-01-05 11:11:00,
2013-01-05 06:16:00,26.1,23.6,30.36,SSW,208,2.0,4.0,90,0.00,,---,0.00,VWS V14.01,2013-01-05 11:16:00,
2013-01-05 06:21:00,26.2,23.7,30.37,SSW,211,2.0,4.0,90,0.00,,---,0.00,VWS V14.01,2013-01-05 11:21:00,
2013-01-05 06:26:00,26.2,23.7,30.37,SSW,212,2.0,4.0,90,0.00,,---,0.00,VWS V14.01,2013-01-05 11:26:00,
2013-01-05 06:30:00,26.3,23.8,30.37,SSW,207,1.0,4.0,90,0.00,,---,0.00,VWS V14.01,2013-01-05 11:30:00,
2013-01-05 06:31:00,26.3,23.8,30.37,SW,236,1.0,1.0,90,0.00,,---,0.00,VWS V14.01,2013-01-05 11:31:00,
2013-01-05 06:36:00,26.1,23.3,30.36,SW,233,1.0,2.0,89,0.00,,---,0.00,VWS V14.01,2013-01-05 11:36:00,
2013-01-05 06:41:00,26.3,23.8,30.36,South,191,0.0,2.0,90,0.00,,---,0.00,VWS V14.01,2013-01-05 11:41:00,
2013-01-05 06:46:00,26.2,23.4,30.36,SE,133,0.0,2.0,89,0.00,,---,0.00,VWS V14.01,2013-01-05 11:46:00,
2013-01-05 06:51:00,25.9,23.1,30.36,East,80,0.0,2.0,89,0.00,,---,0.00,VWS V14.01,2013-01-05 11:51:00,
2013-01-05 06:56:00,25.7,22.9,30.36,ESE,120,0.0,2.0,89,0.00,,---,0.00,VWS V14.01,2013-01-05 11:56:00,
2013-01-05 07:00:00,25.5,23.0,30.36,SE,125,0.0,2.0,90,0.00,,---,0.00,VWS V14.01,2013-01-05 12:00:00,
2013-01-05 07:01:00,25.5,23.0,30.36,SE,125,0.0,2.0,90,0.00,,---,0.00,VWS V14.01,2013-01-05 12:01:00,
2013-01-05 07:06:00,25.2,22.7,30.36,SE,125,0.0,0.0,90,0.00,,---,0.00,VWS V14.01,2013-01-05 12:06:00,
2013-01-05 07:11:00,25.0,22.5,30.37,SE,126,0.0,1.0,90,0.00,,---,0.00,VWS V14.01,2013-01-05 12:11:00,
2013-01-05 07:16:00,24.8,22.3,30.36,SE,125,0.0,1.0,90,0.00,,---,0.00,VWS V14.01,2013-01-05 12:16:00,
2013-01-05 07:21:00,24.6,22.4,30.36,SE,125,0.0,1.0,91,0.00,,---,0.00,VWS V14.01,2013-01-05 12:21:00,
2013-01-05 07:26:00,24.7,22.5,30.37,SE,125,0.0,1.0,91,0.00,,---,0.00,VWS V14.01,2013-01-05 12:26:00,
2013-01-05 07:30:00,24.7,22.7,30.36,SE,125,0.0,1.0,92,0.00,,---,0.00,VWS V14.01,2013-01-05 12:30:00,
2013-01-05 07:31:00,24.7,22.7,30.36,SE,125,0.0,1.0,92,0.00,,---,0.00,VWS V14.01,2013-01-05 12:31:00,
2013-01-05 07:36:00,24.9,22.9,30.37,SE,125,0.0,0.0,92,0.00,,---,0.00,VWS V14.01,2013-01-05 12:36:00,
2013-01-05 07:41:00,25.0,23.0,30.37,SE,125,0.0,0.0,92,0.00,,---,0.00,VWS V14.01,2013-01-05 12:41:00,
2013-01-05 07:46:00,25.0,23.0,30.36,SE,124,0.0,0.0,92,0.00,,---,0.00,VWS V14.01,2013-01-05 12:46:00,
2013-01-05 07:51:00,25.1,23.1,30.36,SE,143,1.0,2.0,92,0.00,,---,0.00,VWS V14.01,2013-01-05 12:51:00,
2013-01-05 07:56:00,25.1,23.1,30.36,ESE,123,0.0,2.0,92,0.00,,---,0.00,VWS V14.01,2013-01-05 12:56:00,
2013-01-05 08:00:00,24.9,22.6,30.36,SSE,165,0.0,2.0,91,0.00,,---,0.00,VWS V14.01,2013-01-05 13:00:00,
2013-01-05 08:01:00,24.9,22.6,30.36,SSE,165,1.0,2.0,91,0.00,,---,0.00,VWS V14.01,2013-01-05 13:01:00,
2013-01-05 08:06:00,24.8,22.8,30.36,SSE,150,0.0,2.0,92,0.00,,---,0.00,VWS V14.01,2013-01-05 13:06:00,
2013-01-05 08:11:00,25.0,23.0,30.36,SSW,205,2.0,3.0,92,0.00,,---,0.00,VWS V14.01,2013-01-05 13:11:00,
2013-01-05 08:16:00,25.4,23.4,30.36,SE,141,2.0,5.0,92,0.00,,---,0.00,VWS V14.01,2013-01-05 13:16:00,
2013-01-05 08:21:00,25.6,23.6,30.36,SSE,152,1.0,5.0,92,0.00,,---,0.00,VWS V14.01,2013-01-05 13:21:00,
2013-01-05 08:26:00,26.0,24.0,30.35,SE,135,2.0,5.0,92,0.00,,---,0.00,VWS V14.01,2013-01-05 13:26:00,
2013-01-05 08:30:00,26.5,24.2,30.35,SE,143,1.0,5.0,91,0.00,,---,0.00,VWS V14.01,2013-01-05 13:30:00,
2013-01-05 08:31:00,26.5,24.2,30.35,SE,145,1.0,5.0,91,0.00,,---,0.00,VWS V14.01,2013-01-05 13:31:00,
2013-01-05 08:36:00,26.9,24.4,30.35,SE,130,0.0,1.0,90,0.00,,---,0.00,VWS V14.01,2013-01-05 13:36:00,
2013-01-05 08:41:00,27.1,24.6,30.36,SSE,159,0.0,4.0,90,0.00,,---,0.00,VWS V14.01,2013-01-05 13:41:00,
2013-01-05 08:46:00,27.4,24.6,30.36,SW,235,0.0,4.0,89,0.00,,---,0.00,VWS V14.01,2013-01-05 13:46:00,
2013-01-05 08:51:00,27.6,24.8,30.36,SSW,205,2.0,4.0,89,0.00,,---,0.00,VWS V14.01,2013-01-05 13:51:00,
2013-01-05 08:56:00,27.9,24.8,30.36,SSW,204,1.0,7.0,88,0.00,,---,0.00,VWS V14.01,2013-01-05 13:56:00,
2013-01-05 11:30:00,39.1,29.4,30.30,SW,226,0.0,8.0,68,0.00,,---,0.00,VWS V15.00,2013-01-05 16:30:00,
2013-01-05 12:00:00,40.1,29.3,30.30,SE,139,4.0,7.0,65,0.00,,---,0.00,VWS V15.00,2013-01-05 17:00:00,
2013-01-05 12:23:00,38.5,29.6,30.31,SW,236,0.0,0.0,70,0.00,,---,0.00,VWS V14.01,2013-01-05 17:23:00,
2013-01-05 12:28:00,39.0,30.1,30.31,SSW,205,2.0,8.0,70,0.00,,---,0.00,VWS V14.01,2013-01-05 17:28:00,
2013-01-05 12:30:00,40.0,28.4,30.27,SSW,200,5.0,9.0,63,0.00,,---,0.00,VWS V15.00,2013-01-05 17:30:00,
2013-01-05 12:33:00,39.2,29.9,30.30,SSE,164,1.0,1.0,69,0.00,,---,0.00,VWS V14.01,2013-01-05 17:33:00,
2013-01-05 12:38:00,39.5,29.8,30.31,SW,219,4.0,7.0,68,0.00,,---,0.00,VWS V14.01,2013-01-05 17:38:00,
2013-01-05 12:43:00,39.3,29.6,30.30,SW,233,2.0,7.0,68,0.00,,---,0.00,VWS V14.01,2013-01-05 17:43:00,
2013-01-05 12:47:00,39.4,29.7,30.30,SSW,199,2.0,7.0,68,0.00,,---,0.00,VWS V14.01,2013-01-05 17:47:00,
2013-01-05 12:52:00,40.1,30.0,30.30,SSE,167,2.0,7.0,67,0.00,,---,0.00,VWS V14.01,2013-01-05 17:52:00,
2013-01-05 12:57:00,40.2,29.8,30.30,WSW,237,1.0,7.0,66,0.00,,---,0.00,VWS V14.01,2013-01-05 17:57:00,
2013-01-05 13:00:00,40.8,28.8,30.25,SSW,208,2.0,10.0,62,0.00,,---,0.00,VWS V15.00,2013-01-05 18:00:00,
2013-01-05 13:02:00,40.0,29.2,30.30,SW,231,4.0,5.0,65,0.00,,---,0.00,VWS V14.01,2013-01-05 18:02:00,
2013-01-05 13:07:00,39.9,28.7,30.30,SSW,201,2.0,7.0,64,0.00,,---,0.00,VWS V14.01,2013-01-05 18:07:00,
2013-01-05 13:12:00,40.0,28.8,30.29,SSE,162,8.0,9.0,64,0.00,,---,0.00,VWS V14.01,2013-01-05 18:12:00,
2013-01-05 13:17:00,39.8,28.6,30.29,SSW,208,4.0,9.0,64,0.00,,---,0.00,VWS V14.01,2013-01-05 18:17:00,
2013-01-05 13:22:00,39.9,29.1,30.28,SSE,150,4.0,9.0,65,0.00,,---,0.00,VWS V14.01,2013-01-05 18:22:00,
2013-01-05 13:27:00,40.0,28.8,30.28,South,169,4.0,9.0,64,0.00,,---,0.00,VWS V14.01,2013-01-05 18:27:00,
2013-01-05 13:30:00,39.9,28.3,30.24,SW,228,2.0,9.0,63,0.00,,---,0.00,VWS V15.00,2013-01-05 18:30:00,
2013-01-05 13:32:00,40.0,28.4,30.27,SSW,198,3.0,4.0,63,0.00,,---,0.00,VWS V14.01,2013-01-05 18:32:00,
2013-01-05 13:37:00,40.1,28.5,30.26,SSW,196,3.0,5.0,63,0.00,,---,0.00,VWS V14.01,2013-01-05 18:37:00,
2013-01-05 13:42:00,40.4,28.4,30.26,South,169,4.0,7.0,62,0.00,,---,0.00,VWS V14.01,2013-01-05 18:42:00,
2013-01-05 13:47:00,40.4,28.4,30.26,WSW,250,2.0,9.0,62,0.00,,---,0.00,VWS V14.01,2013-01-05 18:47:00,
2013-01-05 13:52:00,40.7,28.7,30.26,SW,215,2.0,9.0,62,0.00,,---,0.00,VWS V14.01,2013-01-05 18:52:00,
2013-01-05 13:57:00,40.7,28.7,30.25,SE,132,3.0,9.0,62,0.00,,---,0.00,VWS V14.01,2013-01-05 18:57:00,
2013-01-05 14:00:00,40.1,28.1,30.23,SSE,167,1.0,6.0,62,0.02,,---,0.02,VWS V15.00,2013-01-05 19:00:00,
2013-01-05 14:02:00,40.8,29.2,30.25,South,189,5.0,6.0,63,0.00,,---,0.00,VWS V14.01,2013-01-05 19:02:00,
2013-01-05 14:07:00,40.4,28.4,30.25,SSW,204,3.0,7.0,62,0.00,,---,0.00,VWS V14.01,2013-01-05 19:07:00,
2013-01-05 14:12:00,40.1,28.1,30.24,SSE,153,3.0,7.0,62,0.00,,---,0.00,VWS V14.01,2013-01-05 19:12:00,
2013-01-05 14:17:00,40.1,28.1,30.24,WSW,249,7.0,9.0,62,0.00,,---,0.00,VWS V14.01,2013-01-05 19:17:00,
2013-01-05 14:22:00,40.1,28.1,30.24,SSE,166,6.0,9.0,62,0.00,,---,0.00,VWS V14.01,2013-01-05 19:22:00,
2013-01-05 14:27:00,40.0,28.0,30.24,WSW,256,3.0,9.0,62,0.00,,---,0.00,VWS V14.01,2013-01-05 19:27:00,
2013-01-05 14:30:00,40.0,28.8,30.23,WSW,252,1.0,4.0,64,0.03,,---,0.03,VWS V15.00,2013-01-05 19:30:00,
2013-01-05 14:32:00,39.9,28.3,30.24,SSW,207,1.0,2.0,63,0.00,,---,0.00,VWS V14.01,2013-01-05 19:32:00,
2013-01-05 14:37:00,39.9,28.3,30.23,ESE,110,2.0,4.0,63,0.02,,---,0.02,VWS V14.01,2013-01-05 19:37:00,
2013-01-05 14:42:00,40.0,28.8,30.23,SSW,207,0.0,4.0,64,0.02,,---,0.02,VWS V14.01,2013-01-05 19:42:00,
2013-01-05 14:47:00,40.1,28.5,30.23,SSE,165,1.0,4.0,63,0.02,,---,0.02,VWS V14.01,2013-01-05 19:47:00,
2013-01-05 14:52:00,40.2,28.6,30.23,South,189,4.0,6.0,63,0.02,,---,0.02,VWS V14.01,2013-01-05 19:52:00,
2013-01-05 14:57:00,40.1,28.1,30.23,SW,229,2.0,6.0,62,0.02,,---,0.02,VWS V14.01,2013-01-05 19:57:00,
2013-01-05 15:00:00,39.8,29.4,30.22,NW,316,0.0,3.0,66,0.04,,---,0.04,VWS V15.00,2013-01-05 20:00:00,
2013-01-05 15:02:00,40.1,28.1,30.23,South,171,1.0,4.0,62,0.02,,---,0.02,VWS V14.01,2013-01-05 20:02:00,
2013-01-05 15:07:00,40.0,28.4,30.23,SW,214,1.0,4.0,63,0.02,,---,0.02,VWS V14.01,2013-01-05 20:07:00,
2013-01-05 15:12:00,40.1,28.1,30.23,SW,233,1.0,4.0,62,0.02,,---,0.02,VWS V14.01,2013-01-05 20:12:00,
2013-01-05 15:17:00,40.1,28.5,30.23,SW,226,0.0,4.0,63,0.03,,---,0.03,VWS V14.01,2013-01-05 20:17:00,
2013-01-05 15:22:00,40.1,28.9,30.23,West,266,0.0,4.0,64,0.03,,---,0.03,VWS V14.01,2013-01-05 20:22:00,
2013-01-05 15:27:00,40.0,28.8,30.23,West,267,1.0,4.0,64,0.03,,---,0.03,VWS V14.01,2013-01-05 20:27:00,
2013-01-05 15:30:00,39.6,29.2,30.23,WNW,300,1.0,3.0,66,0.03,,---,0.05,VWS V15.00,2013-01-05 20:30:00,
2013-01-05 15:32:00,40.0,28.4,30.23,West,277,1.0,2.0,63,0.03,,---,0.03,VWS V14.01,2013-01-05 20:32:00,
2013-01-05 15:37:00,40.0,28.8,30.22,WSW,246,1.0,2.0,64,0.03,,---,0.03,VWS V14.01,2013-01-05 20:37:00,
2013-01-05 15:42:00,39.9,29.1,30.22,West,260,1.0,2.0,65,0.04,,---,0.04,VWS V14.01,2013-01-05 20:42:00,
2013-01-05 15:47:00,39.8,28.6,30.23,West,280,1.0,2.0,64,0.04,,---,0.04,VWS V14.01,2013-01-05 20:47:00,
2013-01-05 15:52:00,39.8,29.0,30.23,West,274,0.0,2.0,65,0.04,,---,0.04,VWS V14.01,2013-01-05 20:52:00,
2013-01-05 15:57:00,39.8,29.0,30.22,NW,316,0.0,3.0,65,0.04,,---,0.04,VWS V14.01,2013-01-05 20:57:00,
2013-01-05 16:00:00,39.4,29.4,30.25,West,280,1.0,4.0,67,0.02,,---,0.05,VWS V15.00,2013-01-05 21:00:00,
2013-01-05 16:02:00,39.8,29.4,30.22,NW,316,0.0,0.0,66,0.02,,---,0.04,VWS V14.01,2013-01-05 21:02:00,
2013-01-05 16:07:00,39.8,29.4,30.22,NW,316,0.0,1.0,66,0.02,,---,0.04,VWS V14.01,2013-01-05 21:07:00,
2013-01-05 16:12:00,39.7,29.3,30.22,NW,316,0.0,1.0,66,0.02,,---,0.04,VWS V14.01,2013-01-05 21:12:00,
2013-01-05 16:17:00,39.7,29.3,30.22,West,259,1.0,1.0,66,0.02,,---,0.04,VWS V14.01,2013-01-05 21:17:00,
2013-01-05 16:22:00,39.6,29.2,30.23,West,277,1.0,2.0,66,0.03,,---,0.05,VWS V14.01,2013-01-05 21:22:00,
2013-01-05 16:27:00,39.6,29.2,30.22,West,274,1.0,2.0,66,0.03,,---,0.05,VWS V14.01,2013-01-05 21:27:00,
2013-01-05 16:30:00,39.0,29.7,30.24,West,269,0.0,5.0,69,0.02,,---,0.06,VWS V15.00,2013-01-05 21:30:00,
2013-01-05 16:32:00,39.6,29.2,30.23,WNW,283,1.0,3.0,66,0.02,,---,0.05,VWS V14.01,2013-01-05 21:32:00,
2013-01-05 16:37:00,39.6,29.2,30.23,West,269,2.0,3.0,66,0.02,,---,0.05,VWS V14.01,2013-01-05 21:37:00,
2013-01-05 16:42:00,39.6,29.2,30.23,WSW,256,2.0,3.0,66,0.02,,---,0.05,VWS V14.01,2013-01-05 21:42:00,
2013-01-05 16:47:00,39.5,29.5,30.24,West,271,1.0,3.0,67,0.02,,---,0.05,VWS V14.01,2013-01-05 21:47:00,
2013-01-05 16:52:00,39.5,29.1,30.24,West,274,2.0,4.0,66,0.02,,---,0.05,VWS V14.01,2013-01-05 21:52:00,
2013-01-05 16:57:00,39.5,29.1,30.24,WNW,287,2.0,4.0,66,0.02,,---,0.05,VWS V14.01,2013-01-05 21:57:00,
2013-01-05 17:00:00,38.4,29.1,30.22,South,176,0.0,2.0,69,0.01,,---,0.06,VWS V15.00,2013-01-05 22:00:00,
2013-01-05 17:02:00,39.4,29.4,30.25,West,269,1.0,2.0,67,0.01,,---,0.05,VWS V14.01,2013-01-05 22:02:00,
2013-01-05 17:07:00,39.3,29.6,30.25,West,278,2.0,3.0,68,0.01,,---,0.05,VWS V14.01,2013-01-05 22:07:00,
2013-01-05 17:12:00,39.3,29.6,30.25,WSW,253,2.0,4.0,68,0.02,,---,0.06,VWS V14.01,2013-01-05 22:12:00,
2013-01-05 17:17:00,39.2,29.5,30.24,West,276,2.0,4.0,68,0.02,,---,0.06,VWS V14.01,2013-01-05 22:17:00,
2013-01-05 17:22:00,39.1,29.8,30.24,West,262,1.0,5.0,69,0.02,,---,0.06,VWS V14.01,2013-01-05 22:22:00,
2013-01-05 17:27:00,39.0,29.7,30.24,West,274,1.0,5.0,69,0.02,,---,0.06,VWS V14.01,2013-01-05 22:27:00,
2013-01-05 17:30:00,38.2,29.3,30.23,SW,222,0.0,0.0,70,0.01,,---,0.06,VWS V15.00,2013-01-05 22:30:00,
2013-01-05 17:32:00,38.9,29.6,30.24,WSW,250,2.0,2.0,69,0.01,,---,0.06,VWS V14.01,2013-01-05 22:32:00,
2013-01-05 17:37:00,38.9,29.6,30.23,West,278,0.0,2.0,69,0.01,,---,0.06,VWS V14.01,2013-01-05 22:37:00,
2013-01-05 17:42:00,38.7,29.4,30.23,West,278,0.0,2.0,69,0.01,,---,0.06,VWS V14.01,2013-01-05 22:42:00,
2013-01-05 17:47:00,38.6,29.7,30.23,West,278,0.0,2.0,70,0.01,,---,0.06,VWS V14.01,2013-01-05 22:47:00,
2013-01-05 17:52:00,38.4,29.5,30.23,SE,141,0.0,2.0,70,0.01,,---,0.06,VWS V14.01,2013-01-05 22:52:00,
2013-01-05 17:57:00,38.4,29.1,30.22,South,176,0.0,2.0,69,0.01,,---,0.06,VWS V14.01,2013-01-05 22:57:00,
2013-01-05 18:00:00,37.6,30.4,30.23,SW,235,1.0,9.0,75,0.01,,---,0.07,VWS V15.00,2013-01-05 23:00:00,
2013-01-05 18:02:00,38.4,29.1,30.22,South,176,0.0,0.0,69,0.01,,---,0.06,VWS V14.01,2013-01-05 23:02:00,
2013-01-05 18:07:00,38.4,29.5,30.22,South,183,0.0,0.0,70,0.01,,---,0.06,VWS V14.01,2013-01-05 23:07:00,
2013-01-05 18:12:00,38.4,29.1,30.22,SW,232,0.0,0.0,69,0.01,,---,0.06,VWS V14.01,2013-01-05 23:12:00,
2013-01-05 18:17:00,38.3,29.4,30.22,SW,222,0.0,0.0,70,0.01,,---,0.06,VWS V14.01,2013-01-05 23:17:00,
2013-01-05 18:22:00,38.3,29.0,30.22,SW,235,0.0,0.0,69,0.01,,---,0.06,VWS V14.01,2013-01-05 23:22:00,
2013-01-05 18:27:00,38.4,29.1,30.22,WSW,243,0.0,0.0,69,0.01,,---,0.06,VWS V14.01,2013-01-05 23:27:00,
2013-01-05 18:30:00,37.4,30.2,30.22,WSW,248,1.0,3.0,75,0.01,,---,0.07,VWS V15.00,2013-01-05 23:30:00,
2013-01-05 18:32:00,38.2,29.3,30.23,SSW,199,2.0,4.0,70,0.00,,---,0.06,VWS V14.01,2013-01-05 23:32:00,
2013-01-05 18:37:00,38.1,29.9,30.23,SSW,207,2.0,7.0,72,0.00,,---,0.06,VWS V14.01,2013-01-05 23:37:00,
2013-01-05 18:42:00,38.0,30.5,30.23,SE,143,5.0,7.0,74,0.00,,---,0.06,VWS V14.01,2013-01-05 23:42:00,
2013-01-05 18:47:00,37.9,30.4,30.23,WSW,242,1.0,9.0,74,0.01,,---,0.07,VWS V14.01,2013-01-05 23:47:00,
2013-01-05 18:52:00,37.8,30.6,30.23,SW,232,0.0,9.0,75,0.01,,---,0.07,VWS V14.01,2013-01-05 23:52:00,
2013-01-05 18:57:00,37.6,30.4,30.23,WSW,246,1.0,9.0,75,0.01,,---,0.07,VWS V14.01,2013-01-05 23:57:00,
2013-01-05 19:00:00,37.2,29.7,30.22,SW,233,1.0,3.0,74,0.01,,---,0.07,VWS V15.00,2013-01-06 00:00:00,
2013-01-05 19:02:00,37.6,30.4,30.23,WSW,256,1.0,2.0,75,0.01,,---,0.07,VWS V14.01,2013-01-06 00:02:00,
2013-01-05 19:07:00,37.5,30.3,30.23,SW,236,2.0,3.0,75,0.01,,---,0.07,VWS V14.01,2013-01-06 00:07:00,
2013-01-05 19:12:00,37.6,30.4,30.23,West,278,2.0,3.0,75,0.01,,---,0.07,VWS V14.01,2013-01-06 00:12:00,
2013-01-05 19:17:00,37.6,30.4,30.22,West,259,1.0,3.0,75,0.01,,---,0.07,VWS V14.01,2013-01-06 00:17:00,
2013-01-05 19:22:00,37.5,30.3,30.22,SW,214,0.0,3.0,75,0.01,,---,0.07,VWS V14.01,2013-01-06 00:22:00,
2013-01-05 19:27:00,37.4,30.2,30.22,SW,214,2.0,3.0,75,0.01,,---,0.07,VWS V14.01,2013-01-06 00:27:00,
2013-01-05 19:30:00,36.3,29.5,30.21,WSW,243,0.0,3.0,76,0.00,,---,0.07,VWS V15.00,2013-01-06 00:30:00,
2013-01-05 19:32:00,37.4,30.2,30.22,WSW,248,1.0,1.0,75,0.01,,---,0.07,VWS V14.01,2013-01-06 00:32:00,
2013-01-05 19:37:00,37.4,30.2,30.23,SW,231,0.0,2.0,75,0.01,,---,0.07,VWS V14.01,2013-01-06 00:37:00,
2013-01-05 19:42:00,37.3,30.1,30.23,SW,224,0.0,2.0,75,0.01,,---,0.07,VWS V14.01,2013-01-06 00:42:00,
2013-01-05 19:47:00,37.3,30.1,30.23,West,266,0.0,2.0,75,0.01,,---,0.07,VWS V14.01,2013-01-06 00:47:00,
2013-01-05 19:52:00,37.2,30.0,30.22,SW,214,0.0,2.0,75,0.01,,---,0.07,VWS V14.01,2013-01-06 00:52:00,
2013-01-05 19:57:00,37.2,30.4,30.22,SSW,211,1.0,2.0,76,0.01,,---,0.07,VWS V14.01,2013-01-06 00:57:00,
2013-01-05 20:00:00,35.6,29.4,30.22,WSW,248,0.0,2.0,78,0.00,,---,0.07,VWS V15.00,2013-01-06 01:00:00,
2013-01-05 20:02:00,37.2,29.7,30.22,SW,228,1.0,2.0,74,0.00,,---,0.07,VWS V14.01,2013-01-06 01:02:00,
2013-01-05 20:07:00,37.2,29.7,30.21,SW,224,0.0,3.0,74,0.00,,---,0.07,VWS V14.01,2013-01-06 01:07:00,
2013-01-05 20:12:00,37.1,29.6,30.21,WSW,239,1.0,3.0,74,0.00,,---,0.07,VWS V14.01,2013-01-06 01:12:00,
2013-01-05 20:17:00,36.9,29.4,30.22,WSW,245,0.0,3.0,74,0.00,,---,0.07,VWS V14.01,2013-01-06 01:17:00,
2013-01-05 20:22:00,36.8,29.6,30.22,WSW,242,1.0,3.0,75,0.00,,---,0.07,VWS V14.01,2013-01-06 01:22:00,
2013-01-05 20:27:00,36.5,29.3,30.21,WSW,243,0.0,3.0,75,0.00,,---,0.07,VWS V14.01,2013-01-06 01:27:00,
2013-01-05 20:30:00,35.5,29.3,30.20,South,173,0.0,2.0,78,0.00,,---,0.07,VWS V15.00,2013-01-06 01:30:00,
2013-01-05 20:32:00,36.3,29.5,30.21,WSW,243,0.0,0.0,76,0.00,,---,0.07,VWS V14.01,2013-01-06 01:32:00,
2013-01-05 20:37:00,36.0,29.2,30.21,WSW,243,0.0,0.0,76,0.00,,---,0.07,VWS V14.01,2013-01-06 01:37:00,
2013-01-05 20:42:00,35.8,29.3,30.22,WSW,245,0.0,0.0,77,0.00,,---,0.07,VWS V14.01,2013-01-06 01:42:00,
2013-01-05 20:47:00,35.7,29.2,30.22,West,281,0.0,1.0,77,0.00,,---,0.07,VWS V14.01,2013-01-06 01:47:00,
2013-01-05 20:52:00,35.5,29.3,30.21,West,281,0.0,1.0,78,0.00,,---,0.07,VWS V14.01,2013-01-06 01:52:00,
2013-01-05 20:57:00,35.5,29.3,30.22,WSW,255,0.0,1.0,78,0.00,,---,0.07,VWS V14.01,2013-01-06 01:57:00,
2013-01-05 21:00:00,34.9,28.8,30.20,WSW,245,0.0,2.0,78,0.00,,---,0.07,VWS V15.00,2013-01-06 02:00:00,
2013-01-05 21:02:00,35.7,29.5,30.22,WSW,249,0.0,1.0,78,0.00,,---,0.07,VWS V14.01,2013-01-06 02:02:00,
2013-01-05 21:07:00,35.7,29.5,30.21,WSW,249,0.0,1.0,78,0.00,,---,0.07,VWS V14.01,2013-01-06 02:07:00,
2013-01-05 21:12:00,35.7,29.5,30.21,SW,228,1.0,1.0,78,0.00,,---,0.07,VWS V14.01,2013-01-06 02:12:00,
2013-01-05 21:17:00,35.6,29.4,30.21,SW,217,0.0,1.0,78,0.00,,---,0.07,VWS V14.01,2013-01-06 02:17:00,
2013-01-05 21:22:00,35.6,29.4,30.20,SSW,211,1.0,2.0,78,0.00,,---,0.07,VWS V14.01,2013-01-06 02:22:00,
2013-01-05 21:27:00,35.5,29.3,30.20,South,171,1.0,2.0,78,0.00,,---,0.07,VWS V14.01,2013-01-06 02:27:00,
2013-01-05 21:30:00,35.0,28.5,30.20,West,281,0.0,0.0,77,0.00,,---,0.07,VWS V15.00,2013-01-06 02:30:00,
2013-01-05 21:32:00,35.4,29.2,30.20,South,173,0.0,0.0,78,0.00,,---,0.07,VWS V14.01,2013-01-06 02:32:00,
2013-01-05 21:37:00,35.1,28.9,30.20,WSW,242,1.0,1.0,78,0.00,,---,0.07,VWS V14.01,2013-01-06 02:37:00,
2013-01-05 21:42:00,35.1,28.9,30.21,West,275,0.0,2.0,78,0.00,,---,0.07,VWS V14.01,2013-01-06 02:42:00,
2013-01-05 21:47:00,35.1,28.9,30.21,WSW,250,0.0,2.0,78,0.00,,---,0.07,VWS V14.01,2013-01-06 02:47:00,
2013-01-05 21:52:00,35.0,28.9,30.21,WSW,250,0.0,2.0,78,0.00,,---,0.07,VWS V14.01,2013-01-06 02:52:00,
2013-01-05 21:57:00,34.9,28.8,30.20,SW,225,0.0,2.0,78,0.00,,---,0.07,VWS V14.01,2013-01-06 02:57:00,
2013-01-05 22:00:00,35.0,28.5,30.20,West,266,0.0,0.0,77,0.00,,---,0.07,VWS V15.00,2013-01-06 03:00:00,
2013-01-05 22:02:00,34.9,28.8,30.20,WSW,253,0.0,0.0,78,0.00,,---,0.07,VWS V14.01,2013-01-06 03:02:00,
2013-01-05 22:07:00,34.9,28.8,30.20,WSW,246,0.0,0.0,78,0.00,,---,0.07,VWS V14.01,2013-01-06 03:07:00,
2013-01-05 22:12:00,35.0,28.9,30.21,WSW,257,0.0,0.0,78,0.00,,---,0.07,VWS V14.01,2013-01-06 03:12:00,
2013-01-05 22:17:00,35.0,28.5,30.20,West,271,0.0,0.0,77,0.00,,---,0.07,VWS V14.01,2013-01-06 03:17:00,
2013-01-05 22:22:00,35.0,28.9,30.20,WNW,290,0.0,0.0,78,0.00,,---,0.07,VWS V14.01,2013-01-06 03:22:00,
2013-01-05 22:27:00,35.1,28.6,30.20,West,281,0.0,0.0,77,0.00,,---,0.07,VWS V14.01,2013-01-06 03:27:00,
2013-01-05 22:30:00,34.4,28.6,30.19,WNW,288,2.0,2.0,79,0.00,,---,0.07,VWS V15.00,2013-01-06 03:30:00,
2013-01-05 22:32:00,35.0,28.5,30.20,West,281,0.0,0.0,77,0.00,,---,0.07,VWS V14.01,2013-01-06 03:32:00,
2013-01-05 22:37:00,35.0,28.5,30.20,West,281,0.0,0.0,77,0.00,,---,0.07,VWS V14.01,2013-01-06 03:37:00,
2013-01-05 22:42:00,34.9,28.4,30.20,West,281,0.0,0.0,77,0.00,,---,0.07,VWS V14.01,2013-01-06 03:42:00,
2013-01-05 22:47:00,34.9,28.4,30.20,West,281,0.0,0.0,77,0.00,,---,0.07,VWS V14.01,2013-01-06 03:47:00,
2013-01-05 22:52:00,34.9,28.4,30.20,SW,236,0.0,0.0,77,0.00,,---,0.07,VWS V14.01,2013-01-06 03:52:00,
2013-01-05 22:57:00,34.9,28.4,30.20,West,263,0.0,0.0,77,0.00,,---,0.07,VWS V14.01,2013-01-06 03:57:00,
2013-01-05 23:00:00,35.2,28.7,30.18,WSW,255,0.0,3.0,77,0.00,,---,0.00,VWS V15.00,2013-01-06 04:00:00,
2013-01-05 23:02:00,35.0,28.5,30.20,West,264,0.0,0.0,77,0.00,,---,0.07,VWS V14.01,2013-01-06 04:02:00,
2013-01-05 23:07:00,34.8,28.3,30.20,West,266,0.0,0.0,77,0.00,,---,0.07,VWS V14.01,2013-01-06 04:07:00,
2013-01-05 23:12:00,34.5,28.0,30.19,West,266,0.0,0.0,77,0.00,,---,0.07,VWS V14.01,2013-01-06 04:12:00,
2013-01-05 23:17:00,34.3,28.2,30.19,SW,224,1.0,2.0,78,0.00,,---,0.07,VWS V14.01,2013-01-06 04:17:00,
2013-01-05 23:22:00,34.3,28.2,30.19,WSW,249,0.0,2.0,78,0.00,,---,0.07,VWS V14.01,2013-01-06 04:22:00,
2013-01-05 23:27:00,34.3,28.2,30.19,WSW,248,1.0,2.0,78,0.00,,---,0.07,VWS V14.01,2013-01-06 04:27:00,
2013-01-05 23:30:00,35.6,29.1,30.17,SW,236,0.0,2.0,77,0.00,,---,0.00,VWS V15.00,2013-01-06 04:30:00,
2013-01-05 23:32:00,34.3,28.5,30.19,NW,305,0.0,2.0,79,0.00,,---,0.07,VWS V14.01,2013-01-06 04:32:00,
2013-01-05 23:37:00,34.4,28.6,30.18,SE,138,0.0,2.0,79,0.00,,---,0.07,VWS V14.01,2013-01-06 04:37:00,
2013-01-05 23:42:00,34.8,28.6,30.18,WSW,249,1.0,3.0,78,0.00,,---,0.07,VWS V14.01,2013-01-06 04:42:00,
2013-01-05 23:47:00,34.9,28.8,30.18,West,263,0.0,3.0,78,0.00,,---,0.07,VWS V14.01,2013-01-06 04:47:00,
2013-01-05 23:52:00,35.1,28.6,30.18,SW,225,1.0,3.0,77,0.00,,---,0.07,VWS V14.01,2013-01-06 04:52:00,
2013-01-05 23:57:00,35.2,28.7,30.18,SW,222,0.0,3.0,77,0.00,,---,0.07,VWS V14.01,2013-01-06 04:57:00,